createdAt,value
2022-09-01T00:00:01.341Z,98066.25
2022-09-01T00:02:29.249Z,98070.41
2022-09-01T00:04:58.999Z,98065.72
2022-09-01T00:07:32.706Z,98069.25
2022-09-01T00:10:00.426Z,98055.91
2022-09-01T00:12:28.204Z,98053.03
2022-09-01T00:14:55.635Z,98063.09
2022-09-01T00:17:22.603Z,98067.13
2022-09-01T00:19:49.623Z,98058.94
2022-09-01T00:22:16.808Z,98053.88
2022-09-01T00:24:43.752Z,98046.72
2022-09-01T00:27:10.704Z,98052.06
2022-09-01T00:29:38.027Z,98056.81
2022-09-01T00:32:10.446Z,98063.63
2022-09-01T00:34:37.418Z,98069.22
2022-09-01T00:37:04.495Z,98074.84
2022-09-01T00:39:31.520Z,98091.38
2022-09-01T00:41:59.492Z,98090.38
2022-09-01T00:44:29.569Z,98090.53
2022-09-01T00:46:59.716Z,98095.56
2022-09-01T00:49:31.395Z,98085.16
2022-09-01T00:52:06.023Z,98087.59
2022-09-01T00:54:40.207Z,98084.44
2022-09-01T00:57:09.197Z,98078.22
2022-09-01T00:59:39.224Z,98063.19
2022-09-01T01:02:06.453Z,98051.22
2022-09-01T01:04:33.482Z,98064.09
2022-09-01T01:07:03.216Z,98063.06
2022-09-01T01:09:33.822Z,98071.38
2022-09-01T01:12:03.754Z,98068.22
2022-09-01T01:14:32.532Z,98066.97
2022-09-01T01:17:00.934Z,98070.03
2022-09-01T01:20:04.971Z,98072.06
2022-09-01T01:23:02.557Z,98065.16
2022-09-01T01:25:50.953Z,98060.31
2022-09-01T01:28:22.570Z,98049.00
2022-09-01T01:31:01.945Z,98049.94
2022-09-01T01:33:40.857Z,98036.31
2022-09-01T01:36:14.744Z,98045.31
2022-09-01T01:38:47.055Z,98045.75
2022-09-01T01:41:15.048Z,98031.91
2022-09-01T01:43:42.476Z,98036.19
2022-09-01T01:46:11.209Z,98035.06
2022-09-01T01:48:40.739Z,98038.59
2022-09-01T01:51:09.082Z,98035.72
2022-09-01T01:53:38.223Z,98042.63
2022-09-01T01:56:06.413Z,98046.91
2022-09-01T01:58:35.076Z,98061.09
2022-09-01T02:01:03.873Z,98071.38
2022-09-01T02:03:38.692Z,98077.88
2022-09-01T02:06:10.401Z,98071.22
2022-09-01T02:08:38.431Z,98077.25
2022-09-01T02:11:06.483Z,98075.75
2022-09-01T02:13:34.326Z,98066.56
2022-09-01T02:16:07.947Z,98057.47
2022-09-01T02:18:37.768Z,98063.56
2022-09-01T02:21:16.417Z,98063.63
2022-09-01T02:23:47.907Z,98049.06
2022-09-01T02:26:17.451Z,98048.75
2022-09-01T02:28:54.692Z,98050.25
2022-09-01T02:31:23.938Z,98062.28
2022-09-01T02:33:51.148Z,98066.25
2022-09-01T02:36:19.749Z,98066.81
2022-09-01T02:38:53.188Z,98067.34
2022-09-01T02:41:23.242Z,98066.63
2022-09-01T02:43:51.017Z,98065.81
2022-09-01T02:46:20.549Z,98053.34
2022-09-01T02:48:51.728Z,98052.38
2022-09-01T02:51:20.539Z,98068.91
2022-09-01T02:53:49.937Z,98064.72
2022-09-01T02:56:18.406Z,98057.97
2022-09-01T02:58:46.530Z,98058.44
2022-09-01T03:01:19.787Z,98057.50
2022-09-01T03:03:48.524Z,98057.75
2022-09-01T03:06:18.635Z,98062.84
2022-09-01T03:08:46.100Z,98068.25
2022-09-01T03:11:13.560Z,98069.12
2022-09-01T03:13:41.480Z,98063.47
2022-09-01T03:16:09.344Z,98051.84
2022-09-01T03:18:37.119Z,98052.28
2022-09-01T03:21:05.396Z,98050.50
2022-09-01T03:23:34.171Z,98050.22
2022-09-01T03:26:01.873Z,98051.44
2022-09-01T03:28:29.236Z,98056.72
2022-09-01T03:30:57.485Z,98059.78
2022-09-01T03:33:25.809Z,98053.88
2022-09-01T03:35:53.539Z,98049.53
2022-09-01T03:38:23.181Z,98066.75
2022-09-01T03:40:59.175Z,98059.19
2022-09-01T03:43:35.854Z,98081.16
2022-09-01T03:46:03.786Z,98074.19
2022-09-01T03:48:32.240Z,98069.53
2022-09-01T03:51:03.505Z,98065.09
2022-09-01T03:53:33.123Z,98062.69
2022-09-01T03:56:00.326Z,98067.63
2022-09-01T03:58:27.824Z,98072.69
2022-09-01T04:00:57.216Z,98079.81
2022-09-01T04:03:28.499Z,98076.56
2022-09-01T04:05:56.731Z,98075.16
2022-09-01T04:08:32.740Z,98070.72
2022-09-01T04:11:11.398Z,98067.81
2022-09-01T04:13:41.152Z,98060.19
2022-09-01T04:16:32.690Z,98077.03
2022-09-01T04:19:00.674Z,98073.59
2022-09-01T04:21:27.622Z,98084.69
2022-09-01T04:23:58.240Z,98086.03
2022-09-01T04:26:28.293Z,98083.59
2022-09-01T04:28:56.096Z,98092.66
2022-09-01T04:31:23.226Z,98098.19
2022-09-01T04:33:55.726Z,98094.91
2022-09-01T04:36:27.957Z,98094.44
2022-09-01T04:38:57.847Z,98100.03
2022-09-01T04:41:27.195Z,98097.63
2022-09-01T04:43:57.155Z,98093.13
2022-09-01T04:46:28.678Z,98093.16
2022-09-01T04:48:57.831Z,98096.59
2022-09-01T04:51:28.173Z,98092.41
2022-09-01T04:53:57.654Z,98086.31
2022-09-01T04:56:26.957Z,98086.34
2022-09-01T04:58:57.172Z,98090.03
2022-09-01T05:01:26.432Z,98082.56
2022-09-01T05:04:01.565Z,98082.13
2022-09-01T05:06:34.114Z,98084.03
2022-09-01T05:09:01.009Z,98085.41
2022-09-01T05:11:27.974Z,98092.09
2022-09-01T05:13:57.910Z,98083.41
2022-09-01T05:16:28.038Z,98085.41
2022-09-01T05:18:57.249Z,98088.25
2022-09-01T05:21:29.029Z,98076.72
2022-09-01T05:23:58.224Z,98079.59
2022-09-01T05:26:27.923Z,98072.16
2022-09-01T05:28:58.779Z,98071.97
2022-09-01T05:31:28.665Z,98072.81
2022-09-01T05:33:58.397Z,98072.19
2022-09-01T05:36:25.959Z,98070.09
2022-09-01T05:38:52.885Z,98071.88
2022-09-01T05:41:21.249Z,98073.84
2022-09-01T05:43:56.388Z,98076.62
2022-09-01T05:46:28.482Z,98069.16
2022-09-01T05:48:56.252Z,98068.91
2022-09-01T05:51:43.238Z,98080.84
2022-09-01T05:54:12.467Z,98086.34
2022-09-01T05:56:44.285Z,98090.50
2022-09-01T05:59:28.328Z,98095.00
2022-09-01T06:01:55.633Z,98089.91
2022-09-01T06:04:25.780Z,98087.22
2022-09-01T06:07:11.098Z,98086.53
2022-09-01T06:09:41.760Z,98099.03
2022-09-01T06:12:18.252Z,98103.72
2022-09-01T06:14:47.342Z,98106.28
2022-09-01T06:17:16.858Z,98111.31
2022-09-01T06:19:44.292Z,98111.22
2022-09-01T06:22:11.382Z,98111.94
2022-09-01T06:24:40.124Z,98114.62
2022-09-01T06:27:09.974Z,98130.28
2022-09-01T06:29:40.075Z,98129.88
2022-09-01T06:32:10.623Z,98121.69
2022-09-01T06:34:42.689Z,98127.91
2022-09-01T06:37:11.186Z,98122.38
2022-09-01T06:39:38.439Z,98113.13
2022-09-01T06:42:06.402Z,98117.41
2022-09-01T06:44:33.856Z,98115.31
2022-09-01T06:47:01.276Z,98125.28
2022-09-01T06:49:34.919Z,98117.56
2022-09-01T06:52:05.842Z,98114.62
2022-09-01T06:54:34.874Z,98121.50
2022-09-01T06:59:54.275Z,98120.59
2022-09-01T07:02:27.202Z,98123.53
2022-09-01T07:04:54.624Z,98123.69
2022-09-01T07:10:25.726Z,98120.97
2022-09-01T07:13:09.035Z,98122.41
2022-09-01T07:18:28.416Z,98123.97
2022-09-01T07:21:36.287Z,98128.31
2022-09-01T07:23:47.250Z,98130.69
2022-09-01T07:26:49.070Z,98129.44
2022-09-01T07:29:16.755Z,98122.66
2022-09-01T07:31:52.198Z,98122.19
2022-09-01T07:34:38.531Z,98123.28
2022-09-01T07:39:53.790Z,98118.47
2022-09-01T07:45:27.137Z,98128.00
2022-09-01T07:47:55.059Z,98133.53
2022-09-01T07:50:39.851Z,98131.56
2022-09-01T07:53:09.480Z,98138.12
2022-09-01T07:55:41.284Z,98145.91
2022-09-01T07:58:09.137Z,98147.00
2022-09-01T08:00:37.290Z,98147.16
2022-09-01T08:03:04.264Z,98150.06
2022-09-01T08:05:31.373Z,98151.03
2022-09-01T08:07:58.300Z,98147.16
2022-09-01T08:10:25.282Z,98147.06
2022-09-01T08:12:59.782Z,98150.22
2022-09-01T08:16:06.777Z,98156.56
2022-09-01T08:18:14.993Z,98156.13
2022-09-01T08:20:47.565Z,98159.75
2022-09-01T08:23:18.617Z,98153.81
2022-09-01T08:25:47.436Z,98159.38
2022-09-01T08:28:15.670Z,98154.50
2022-09-01T08:30:52.195Z,98160.97
2022-09-01T08:33:19.516Z,98156.00
2022-09-01T08:35:48.205Z,98162.28
2022-09-01T08:38:15.489Z,98156.69
2022-09-01T08:40:43.484Z,98159.59
2022-09-01T08:43:42.721Z,98154.22
2022-09-01T08:46:28.247Z,98154.38
2022-09-01T08:51:54.038Z,98155.03
2022-09-01T08:54:32.999Z,98145.78
2022-09-01T08:57:05.744Z,98146.41
2022-09-01T08:59:32.749Z,98143.69
2022-09-01T09:02:08.625Z,98142.97
2022-09-01T09:04:49.435Z,98156.94
2022-09-01T09:07:22.943Z,98141.72
2022-09-01T09:10:10.868Z,98141.94
2022-09-01T09:12:50.137Z,98146.41
2022-09-01T09:15:46.011Z,98149.63
2022-09-01T09:18:54.695Z,98140.87
2022-09-01T09:21:30.251Z,98146.63
2022-09-01T09:24:22.657Z,98143.88
2022-09-01T09:26:59.045Z,98135.28
2022-09-01T09:29:27.446Z,98143.53
2022-09-01T09:32:22.590Z,98144.03
2022-09-01T09:34:50.567Z,98151.50
2022-09-01T09:37:27.559Z,98146.06
2022-09-01T09:40:16.426Z,98153.53
2022-09-01T09:42:57.346Z,98148.97
2022-09-01T09:45:29.395Z,98147.69
2022-09-01T09:47:57.566Z,98150.19
2022-09-01T09:50:42.214Z,98145.62
2022-09-01T09:53:12.007Z,98142.38
2022-09-01T09:55:55.913Z,98142.63
2022-09-01T09:58:28.637Z,98130.72
2022-09-01T10:01:09.469Z,98133.84
2022-09-01T10:03:44.547Z,98136.56
2022-09-01T10:06:13.667Z,98132.00
2022-09-01T10:08:45.650Z,98130.12
2022-09-01T10:11:32.834Z,98131.72
2022-09-01T10:14:02.787Z,98126.37
2022-09-01T10:16:32.467Z,98121.44
2022-09-01T10:19:01.209Z,98138.06
2022-09-01T10:21:34.963Z,98126.28
2022-09-01T10:24:21.191Z,98130.12
2022-09-01T10:26:52.771Z,98132.03
2022-09-01T10:29:34.789Z,98121.72
2022-09-01T10:32:30.664Z,98125.37
2022-09-01T10:34:51.307Z,98124.16
2022-09-01T10:37:18.277Z,98127.81
2022-09-01T10:40:13.183Z,98130.56
2022-09-01T10:42:45.251Z,98126.78
2022-09-01T10:45:33.344Z,98122.75
2022-09-01T10:48:35.850Z,98130.06
2022-09-01T10:51:18.227Z,98119.88
2022-09-01T10:53:47.324Z,98124.81
2022-09-01T10:56:28.421Z,98116.69
2022-09-01T10:59:38.737Z,98124.97
2022-09-01T11:02:27.598Z,98123.72
2022-09-01T11:04:55.283Z,98124.06
2022-09-01T11:07:50.084Z,98119.75
2022-09-01T11:10:11.868Z,98111.16
2022-09-01T11:13:23.452Z,98120.38
2022-09-01T11:15:50.537Z,98116.69
2022-09-01T11:18:27.406Z,98121.78
2022-09-01T11:20:56.335Z,98122.81
2022-09-01T11:23:29.592Z,98120.13
2022-09-01T11:28:46.252Z,98120.94
2022-09-01T11:31:21.391Z,98136.47
2022-09-01T11:34:05.554Z,98124.38
2022-09-01T11:36:37.313Z,98125.63
2022-09-01T11:39:30.277Z,98126.87
2022-09-01T11:42:06.300Z,98123.88
2022-09-01T11:44:35.941Z,98121.25
2022-09-01T11:47:12.089Z,98125.13
2022-09-01T11:49:49.309Z,98129.25
2022-09-01T11:52:18.430Z,98131.06
2022-09-01T11:54:48.736Z,98130.69
2022-09-01T11:57:18.326Z,98119.88
2022-09-01T11:59:45.753Z,98118.94
2022-09-01T12:02:25.346Z,98111.03
2022-09-01T12:04:56.970Z,98112.28
2022-09-01T12:07:38.712Z,98115.59
2022-09-01T12:10:15.957Z,98117.25
2022-09-01T12:12:42.938Z,98113.78
2022-09-01T12:15:18.856Z,98110.19
2022-09-01T12:17:49.686Z,98104.78
2022-09-01T12:20:29.439Z,98097.34
2022-09-01T12:22:59.106Z,98102.66
2022-09-01T12:25:32.646Z,98103.16
2022-09-01T12:28:04.173Z,98103.53
2022-09-01T12:30:35.534Z,98105.50
2022-09-01T12:35:54.058Z,98092.47
2022-09-01T12:38:25.748Z,98091.38
2022-09-01T12:40:55.245Z,98103.13
2022-09-01T12:43:39.726Z,98085.50
2022-09-01T12:46:09.420Z,98094.16
2022-09-01T12:48:39.762Z,98091.25
2022-09-01T12:51:30.889Z,98074.78
2022-09-01T12:54:04.911Z,98074.41
2022-09-01T12:56:36.540Z,98076.31
2022-09-01T12:59:14.258Z,98072.78
2022-09-01T13:01:44.627Z,98073.66
2022-09-01T13:04:15.318Z,98074.06
2022-09-01T13:06:42.363Z,98080.56
2022-09-01T13:09:10.224Z,98071.50
2022-09-01T13:14:25.857Z,98078.81
2022-09-01T13:16:52.860Z,98075.19
2022-09-01T13:19:27.383Z,98074.66
2022-09-01T13:21:54.917Z,98084.47
2022-09-01T13:24:25.786Z,98085.53
2022-09-01T13:29:45.217Z,98089.59
2022-09-01T13:32:20.941Z,98092.06
2022-09-01T13:34:50.726Z,98091.56
2022-09-01T13:37:19.409Z,98097.25
2022-09-01T13:39:47.402Z,98097.72
2022-09-01T13:42:15.972Z,98106.19
2022-09-01T13:44:44.122Z,98105.19
2022-09-01T13:50:09.712Z,98110.47
2022-09-01T13:52:39.259Z,98111.44
2022-09-01T13:55:07.598Z,98111.72
2022-09-01T13:57:35.757Z,98117.91
2022-09-01T14:00:05.865Z,98113.34
2022-09-01T14:02:32.805Z,98108.34
2022-09-01T14:04:59.784Z,98110.09
2022-09-01T14:07:26.781Z,98109.34
2022-09-01T14:09:53.706Z,98105.44
2022-09-01T14:12:20.679Z,98105.50
2022-09-01T14:17:35.560Z,98107.81
2022-09-01T14:20:02.897Z,98109.31
2022-09-01T14:22:30.617Z,98117.87
2022-09-01T14:24:59.449Z,98114.75
2022-09-01T14:27:26.453Z,98113.81
2022-09-01T14:29:54.823Z,98114.91
2022-09-01T14:32:27.294Z,98114.84
2022-09-01T14:34:55.113Z,98116.41
2022-09-01T14:37:22.272Z,98116.44
2022-09-01T14:39:53.484Z,98111.03
2022-09-01T14:42:20.802Z,98115.69
2022-09-01T14:44:48.254Z,98111.19
2022-09-01T14:47:19.053Z,98105.97
2022-09-01T14:49:46.945Z,98115.94
2022-09-01T14:52:14.510Z,98106.47
2022-09-01T14:54:42.716Z,98106.69
2022-09-01T14:59:56.867Z,98102.63
2022-09-01T15:02:25.495Z,98107.22
2022-09-01T15:04:52.628Z,98112.81
2022-09-01T15:07:19.627Z,98106.59
2022-09-01T15:09:46.557Z,98108.53
2022-09-01T15:12:13.557Z,98111.03
2022-09-01T15:14:40.546Z,98109.75
2022-09-01T15:17:07.973Z,98111.03
2022-09-01T15:19:34.965Z,98111.16
2022-09-01T15:22:02.011Z,98106.03
2022-09-01T15:24:28.960Z,98115.44
2022-09-01T15:26:55.904Z,98111.75
2022-09-01T15:29:22.842Z,98116.00
2022-09-01T15:31:49.929Z,98107.22
2022-09-01T15:34:19.122Z,98108.50
2022-09-01T15:36:46.120Z,98105.88
2022-09-01T15:39:13.151Z,98110.31
2022-09-01T15:41:40.280Z,98108.94
2022-09-01T15:44:08.082Z,98107.75
2022-09-01T15:46:36.520Z,98106.91
2022-09-01T15:49:07.029Z,98110.69
2022-09-01T15:51:35.382Z,98110.87
2022-09-01T15:54:11.964Z,98112.69
2022-09-01T15:56:39.094Z,98104.22
2022-09-01T15:59:07.792Z,98102.59
2022-09-01T16:01:39.103Z,98100.44
2022-09-01T16:04:08.140Z,98106.56
2022-09-01T16:06:35.525Z,98105.88
2022-09-01T16:09:02.470Z,98103.56
2022-09-01T16:11:29.414Z,98096.37
2022-09-01T16:13:56.535Z,98105.81
2022-09-01T16:16:40.070Z,98095.97
2022-09-01T16:19:21.995Z,98099.94
2022-09-01T16:22:04.045Z,98103.94
2022-09-01T16:24:30.954Z,98097.63
2022-09-01T16:26:57.949Z,98098.69
2022-09-01T16:29:47.859Z,98104.06
2022-09-01T16:32:15.890Z,98101.66
2022-09-01T16:34:47.313Z,98099.12
2022-09-01T16:37:26.272Z,98102.69
2022-09-01T16:40:15.057Z,98102.63
2022-09-01T16:42:47.154Z,98104.66
2022-09-01T16:45:32.910Z,98105.47
2022-09-01T16:47:59.752Z,98098.69
2022-09-01T16:50:46.049Z,98106.44
2022-09-01T16:53:28.615Z,98105.41
2022-09-01T16:56:08.387Z,98107.00
2022-09-01T16:58:53.870Z,98107.47
2022-09-01T17:01:49.755Z,98106.38
2022-09-01T17:04:28.483Z,98111.37
2022-09-01T17:07:06.224Z,98108.31
2022-09-01T17:09:42.034Z,98110.09
2022-09-01T17:12:23.489Z,98107.72
2022-09-01T17:14:58.479Z,98108.47
2022-09-01T17:17:33.815Z,98107.59
2022-09-01T17:20:02.219Z,98110.34
2022-09-01T17:22:29.265Z,98114.53
2022-09-01T17:25:01.119Z,98117.38
2022-09-01T17:27:40.220Z,98119.47
2022-09-01T17:30:07.774Z,98116.94
2022-09-01T17:32:49.857Z,98118.28
2022-09-01T17:35:26.276Z,98117.75
2022-09-01T17:38:20.399Z,98118.47
2022-09-01T17:41:07.075Z,98113.41
2022-09-01T17:43:53.320Z,98119.63
2022-09-01T17:46:38.701Z,98126.13
2022-09-01T17:49:36.533Z,98124.63
2022-09-01T17:52:33.984Z,98122.78
2022-09-01T17:55:11.829Z,98131.09
2022-09-01T17:57:47.591Z,98130.09
2022-09-01T18:00:26.900Z,98134.53
2022-09-01T18:03:10.003Z,98146.59
2022-09-01T18:05:43.828Z,98137.19
2022-09-01T18:08:36.599Z,98139.75
2022-09-01T18:11:27.976Z,98147.28
2022-09-01T18:14:16.448Z,98153.66
2022-09-01T18:17:04.108Z,98151.31
2022-09-01T18:19:38.115Z,98155.56
2022-09-01T18:22:15.530Z,98156.16
2022-09-01T18:24:52.253Z,98154.22
2022-09-01T18:27:19.239Z,98162.94
2022-09-01T18:29:52.175Z,98153.03
2022-09-01T18:32:35.077Z,98159.03
2022-09-01T18:35:19.969Z,98158.94
2022-09-01T18:37:58.652Z,98162.81
2022-09-01T18:40:30.462Z,98166.25
2022-09-01T18:43:01.826Z,98169.03
2022-09-01T18:46:09.282Z,98158.66
2022-09-01T18:49:00.077Z,98166.94
2022-09-01T18:51:36.028Z,98167.34
2022-09-01T18:54:17.077Z,98163.44
2022-09-01T18:56:49.340Z,98166.28
2022-09-01T18:59:46.573Z,98167.94
2022-09-01T19:02:50.208Z,98169.53
2022-09-01T19:05:59.895Z,98173.41
2022-09-01T19:08:48.764Z,98176.47
2022-09-01T19:11:24.491Z,98181.03
2022-09-01T19:14:11.260Z,98181.91
2022-09-01T19:17:00.106Z,98189.81
2022-09-01T19:19:44.388Z,98183.91
2022-09-01T19:22:22.094Z,98187.00
2022-09-01T19:25:19.632Z,98195.97
2022-09-01T19:27:56.502Z,98192.50
2022-09-01T19:30:23.244Z,98192.63
2022-09-01T19:32:50.857Z,98189.50
2022-09-01T19:35:18.954Z,98187.59
2022-09-01T19:37:50.713Z,98197.19
2022-09-01T19:40:32.583Z,98186.47
2022-09-01T19:43:07.379Z,98188.97
2022-09-01T19:46:11.850Z,98192.84
2022-09-01T19:48:43.317Z,98191.62
2022-09-01T19:51:18.052Z,98184.00
2022-09-01T19:53:49.116Z,98188.31
2022-09-01T19:56:49.662Z,98182.75
2022-09-01T19:59:27.341Z,98195.59
2022-09-01T20:02:04.838Z,98193.63
2022-09-01T20:04:43.910Z,98190.31
2022-09-01T20:07:31.500Z,98193.72
2022-09-01T20:10:14.963Z,98191.75
2022-09-01T20:12:50.431Z,98191.59
2022-09-01T20:15:35.807Z,98188.84
2022-09-01T20:18:06.922Z,98198.78
2022-09-01T20:20:46.772Z,98193.94
2022-09-01T20:23:36.889Z,98193.91
2022-09-01T20:26:09.672Z,98190.91
2022-09-01T20:28:51.961Z,98200.22
2022-09-01T20:31:40.914Z,98203.72
2022-09-01T20:34:29.460Z,98197.53
2022-09-01T20:37:17.441Z,98194.81
2022-09-01T20:40:01.500Z,98194.81
2022-09-01T20:42:46.986Z,98196.66
2022-09-01T20:45:20.506Z,98194.37
2022-09-01T20:48:02.039Z,98190.78
2022-09-01T20:50:38.822Z,98191.62
2022-09-01T20:53:33.224Z,98194.06
2022-09-01T20:56:09.829Z,98199.34
2022-09-01T20:58:46.882Z,98200.66
2022-09-01T21:01:24.026Z,98205.00
2022-09-01T21:04:00.291Z,98208.16
2022-09-01T21:06:37.712Z,98207.38
2022-09-01T21:09:11.714Z,98207.03
2022-09-01T21:11:43.418Z,98212.84
2022-09-01T21:14:14.181Z,98211.00
2022-09-01T21:17:05.568Z,98218.63
2022-09-01T21:19:45.285Z,98207.44
2022-09-01T21:22:17.486Z,98214.66
2022-09-01T21:24:48.147Z,98218.41
2022-09-01T21:27:23.805Z,98221.75
2022-09-01T21:30:09.833Z,98215.75
2022-09-01T21:32:37.611Z,98210.75
2022-09-01T21:35:08.616Z,98209.22
2022-09-01T21:37:35.781Z,98212.81
2022-09-01T21:40:03.011Z,98211.09
2022-09-01T21:42:39.464Z,98208.78
2022-09-01T21:45:08.052Z,98206.94
2022-09-01T21:47:35.002Z,98210.56
2022-09-01T21:50:02.297Z,98204.88
2022-09-01T21:52:29.242Z,98209.06
2022-09-01T21:54:56.178Z,98202.06
2022-09-01T21:57:23.277Z,98207.63
2022-09-01T21:59:51.683Z,98202.50
2022-09-01T22:02:20.240Z,98197.06
2022-09-01T22:04:47.597Z,98201.13
2022-09-01T22:07:21.166Z,98198.19
2022-09-01T22:09:48.346Z,98201.50
2022-09-01T22:12:15.368Z,98200.25
2022-09-01T22:14:42.395Z,98202.53
2022-09-01T22:17:09.544Z,98191.72
2022-09-01T22:19:36.753Z,98194.34
2022-09-01T22:22:04.656Z,98184.81
2022-09-01T22:24:31.781Z,98186.97
2022-09-01T22:26:58.805Z,98193.16
2022-09-01T22:29:25.742Z,98201.13
2022-09-01T22:31:53.097Z,98193.94
2022-09-01T22:34:20.268Z,98192.00
2022-09-01T22:36:49.229Z,98191.66
2022-09-01T22:39:18.154Z,98188.09
2022-09-01T22:41:45.546Z,98181.00
2022-09-01T22:44:13.569Z,98189.25
2022-09-01T22:46:40.720Z,98188.69
2022-09-01T22:49:08.480Z,98185.28
2022-09-01T22:51:37.864Z,98187.94
2022-09-01T22:54:06.404Z,98185.38
2022-09-01T22:56:36.075Z,98187.75
2022-09-01T22:59:07.214Z,98183.28
2022-09-01T23:01:37.230Z,98186.63
2022-09-01T23:04:06.423Z,98195.69
2022-09-01T23:06:34.534Z,98190.56
2022-09-01T23:09:02.668Z,98198.28
2022-09-01T23:11:29.980Z,98188.03
2022-09-01T23:13:57.081Z,98191.06
2022-09-01T23:16:25.116Z,98189.22
2022-09-01T23:18:53.495Z,98196.03
2022-09-01T23:21:23.498Z,98200.63
2022-09-01T23:23:58.230Z,98207.22
2022-09-01T23:26:26.688Z,98203.53
2022-09-01T23:28:53.709Z,98211.91
2022-09-01T23:31:23.429Z,98212.66
2022-09-01T23:33:51.358Z,98206.84
2022-09-01T23:36:20.615Z,98200.03
2022-09-01T23:38:48.706Z,98206.84
2022-09-01T23:41:19.695Z,98210.47
2022-09-01T23:43:46.608Z,98208.03
2022-09-01T23:46:23.419Z,98206.34
2022-09-01T23:48:50.872Z,98210.31
2022-09-01T23:51:18.895Z,98202.41
2022-09-01T23:53:46.599Z,98199.75
2022-09-01T23:56:16.250Z,98193.53
2022-09-01T23:58:43.701Z,98187.97
